Lincolnville, KS (66858)

1:03 PM CDT on July 30, 2016 (GMT -0500)
Marion | | Change Station

Elev 1371 ft 38.35 °N, 97.01 °W | Updated 6 minutes ago

Clear
Clear
93.6 °F
Feels Like 105 °F
N
2.7
Wind Variable Wind from West

Today
High -- | Low -- °F
--% Chance of Precip.
Yesterday
High -- | Low -- °F
Precip. -- in
Pressure 29.98 in
Visibility 10.0 miles
Clouds Clear
Heat Index 105 °F
Dew Point 74 °F
Humidity 54%
Rainfall 0.00 in
Snow Depth Not available.
6:28 AM 8:39 PM
Waning Crescent, 12% visible
METAR KEWK 301756Z AUTO 16009KT 10SM CLR 27/19 A3002 RMK AO2 SLP151 T02720194 10278 20206 56006
Pressure 29.98 in
Visibility 10.0 miles
Clouds Clear
Heat Index 105 °F
Dew Point 74 °F
Humidity 54%
Rainfall 0.00 in
Snow Depth Not available.
6:28 AM 8:39 PM
Waning Crescent, 12% visible
METAR KEWK 301756Z AUTO 16009KT 10SM CLR 27/19 A3002 RMK AO2 SLP151 T02720194 10278 20206 56006

10-Day Weather Forecast

Almanac

Astronomy

Jul. 30, 2016 Rise Set
Actual Time
Civil Twilight
Nautical Twilight
Astronomical Twilight
Moon
Length of Visible Light
Length of Day
Tomorrow will be .
, % of the Moon is Illuminated

Today's Extremes

State Highs State Lows

Community

WunderPhotos

Upload Photos

1,928,600 photos uploaded!

WunderBlog® & News

Nearby

Air Quality

  Air Quality AQ Index Pollutant
Not available.

Snow Depth

Station Depth Elevation

Earthquake Activity

City Distance Mag. Time & Date
Minimum magnitude displayed is 2.5.

Coastal Water Temperatures

Place Temperature

Stations

Nearby Weather Stations

Station Location Temp. Windchill Dew Point Humidity Wind Precip. Elev Updated Type
                   

Watches & Warnings

There are currently no watches in effect.